createdAt,value
2017-10-04T00:01:47.010Z,96.70
2017-10-04T00:04:15.401Z,97.10
2017-10-04T00:06:43.770Z,96.70
2017-10-04T00:09:12.377Z,96.60
2017-10-04T00:11:40.742Z,96.60
2017-10-04T00:14:09.110Z,96.50
2017-10-04T00:16:37.498Z,96.70
2017-10-04T00:19:05.866Z,96.80
2017-10-04T00:21:34.291Z,96.70
2017-10-04T00:24:02.654Z,96.80
2017-10-04T00:26:31.019Z,97.00
2017-10-04T00:28:59.515Z,97.20
2017-10-04T00:31:27.892Z,97.00
2017-10-04T00:33:56.471Z,97.30
2017-10-04T00:36:24.839Z,97.40
2017-10-04T00:38:53.214Z,97.50
2017-10-04T00:41:21.625Z,97.60
2017-10-04T00:43:50.008Z,97.50
2017-10-04T00:46:18.562Z,97.50
2017-10-04T00:48:46.934Z,97.80
2017-10-04T00:51:15.304Z,97.50
2017-10-04T00:53:43.694Z,97.00
2017-10-04T00:56:12.086Z,97.20
2017-10-04T00:58:40.510Z,97.70
2017-10-04T01:01:09.661Z,98.50
2017-10-04T01:03:38.049Z,98.50
2017-10-04T01:06:06.665Z,98.70
2017-10-04T01:08:35.044Z,98.30
2017-10-04T01:11:04.247Z,98.30
2017-10-04T01:13:33.385Z,98.00
2017-10-04T01:16:01.766Z,97.90
2017-10-04T01:18:30.175Z,97.90
2017-10-04T01:20:58.658Z,97.90
2017-10-04T01:23:27.211Z,97.90
2017-10-04T01:25:55.573Z,98.20
2017-10-04T01:28:23.954Z,98.00
2017-10-04T01:30:52.347Z,98.20
2017-10-04T01:33:20.714Z,98.30
2017-10-04T01:35:49.315Z,97.90
2017-10-04T01:38:17.687Z,98.30
2017-10-04T01:40:46.055Z,98.80
2017-10-04T01:43:15.743Z,98.80
2017-10-04T01:45:46.481Z,98.80
2017-10-04T01:48:16.427Z,98.50
2017-10-04T01:50:46.780Z,98.40
2017-10-04T01:53:15.665Z,98.10
2017-10-04T01:55:44.561Z,98.10
2017-10-04T01:58:13.646Z,98.00
2017-10-04T02:00:42.654Z,98.50
2017-10-04T02:03:11.545Z,98.60
2017-10-04T02:05:41.323Z,98.70
2017-10-04T02:08:11.033Z,98.60
2017-10-04T02:10:40.025Z,98.30
2017-10-04T02:13:09.800Z,98.40
2017-10-04T02:15:39.573Z,98.30
2017-10-04T02:18:09.475Z,98.40
2017-10-04T02:20:37.847Z,98.70
2017-10-04T02:23:06.250Z,98.90
2017-10-04T02:25:34.638Z,98.90
2017-10-04T02:28:03.792Z,99.10
2017-10-04T02:30:33.642Z,99.10
2017-10-04T02:33:02.010Z,99.00
2017-10-04T02:35:30.374Z,98.90
2017-10-04T02:37:58.761Z,99.00
2017-10-04T02:40:36.472Z,98.90
2017-10-04T02:43:05.573Z,98.80
2017-10-04T02:45:33.933Z,98.60
2017-10-04T02:48:02.297Z,98.80
2017-10-04T02:50:30.695Z,98.50
2017-10-04T02:52:59.062Z,98.30
2017-10-04T02:55:27.494Z,98.40
2017-10-04T02:57:55.875Z,98.50
2017-10-04T03:00:24.254Z,98.70
2017-10-04T03:02:52.755Z,98.90
2017-10-04T03:05:21.126Z,99.30
2017-10-04T03:07:49.718Z,99.00
2017-10-04T03:10:18.100Z,99.00
2017-10-04T03:12:46.466Z,99.00
2017-10-04T03:15:14.858Z,99.30
2017-10-04T03:17:43.230Z,99.00
2017-10-04T03:20:11.601Z,98.30
2017-10-04T03:22:39.991Z,98.70
2017-10-04T03:25:08.362Z,99.10
2017-10-04T03:27:36.726Z,99.30
2017-10-04T03:30:05.123Z,99.00
2017-10-04T03:32:33.498Z,99.40
2017-10-04T03:35:01.910Z,99.70
2017-10-04T03:37:30.286Z,99.70
2017-10-04T03:39:58.664Z,99.90
2017-10-04T03:42:27.061Z,99.90
2017-10-04T03:44:56.318Z,99.60
2017-10-04T03:47:24.876Z,99.60
2017-10-04T03:49:53.244Z,99.00
2017-10-04T03:52:21.611Z,99.20
2017-10-04T03:54:50.780Z,99.30
2017-10-04T03:57:19.155Z,99.30
2017-10-04T03:59:48.009Z,99.40
2017-10-04T04:02:16.378Z,99.10
2017-10-04T04:04:44.755Z,98.80
2017-10-04T04:07:13.203Z,98.80
2017-10-04T04:09:42.337Z,99.00
2017-10-04T04:12:10.925Z,98.90
2017-10-04T04:14:39.323Z,98.50
2017-10-04T04:17:07.706Z,98.70
2017-10-04T04:19:36.108Z,99.20
2017-10-04T04:22:04.493Z,99.40
2017-10-04T04:24:33.945Z,99.60
2017-10-04T04:27:02.320Z,99.70
2017-10-04T04:29:30.702Z,99.90
2017-10-04T04:31:59.103Z,99.90
2017-10-04T04:34:27.475Z,99.90
2017-10-04T04:36:55.870Z,99.90
2017-10-04T04:39:24.255Z,99.90
2017-10-04T04:41:52.629Z,99.90
2017-10-04T04:44:21.014Z,99.90
2017-10-04T04:46:49.734Z,99.90
2017-10-04T04:49:18.135Z,99.90
2017-10-04T04:51:46.503Z,99.90
2017-10-04T04:54:14.871Z,99.90
2017-10-04T04:56:43.306Z,99.90
2017-10-04T04:59:11.682Z,99.90
2017-10-04T05:01:40.233Z,99.90
2017-10-04T05:04:08.648Z,99.90
2017-10-04T05:06:37.101Z,99.90
2017-10-04T05:09:06.690Z,99.40
2017-10-04T05:11:36.001Z,98.40
2017-10-04T05:14:04.790Z,98.50
2017-10-04T05:16:33.276Z,99.50
2017-10-04T05:19:01.656Z,99.00
2017-10-04T05:21:30.118Z,99.00
2017-10-04T05:23:58.489Z,98.60
2017-10-04T05:26:26.913Z,98.80
2017-10-04T05:28:55.292Z,98.90
2017-10-04T05:31:24.313Z,98.70
2017-10-04T05:33:53.471Z,98.90
2017-10-04T05:36:21.855Z,98.90
2017-10-04T05:38:50.516Z,98.80
2017-10-04T05:41:18.953Z,98.70
2017-10-04T05:43:48.084Z,99.10
2017-10-04T05:46:16.485Z,99.10
2017-10-04T05:48:45.413Z,99.20
2017-10-04T05:51:14.841Z,99.30
2017-10-04T05:53:43.972Z,99.50
2017-10-04T05:56:12.351Z,99.50
2017-10-04T05:58:40.742Z,98.70
2017-10-04T06:01:09.119Z,97.20
2017-10-04T06:03:37.695Z,95.40
2017-10-04T06:06:06.073Z,94.50
2017-10-04T06:08:34.573Z,92.60
2017-10-04T06:11:02.975Z,91.00
2017-10-04T06:13:32.109Z,90.70
2017-10-04T06:16:00.530Z,90.70
2017-10-04T06:18:28.993Z,90.70
2017-10-04T06:20:57.372Z,89.50
2017-10-04T06:23:25.773Z,87.20
2017-10-04T06:25:54.153Z,85.70
2017-10-04T06:28:24.232Z,84.10
2017-10-04T06:30:52.599Z,84.20
2017-10-04T06:33:20.974Z,85.40
2017-10-04T06:35:49.370Z,86.90
2017-10-04T06:38:17.752Z,89.60
2017-10-04T06:40:46.335Z,91.90
2017-10-04T06:43:14.703Z,92.40
2017-10-04T06:45:43.078Z,92.10
2017-10-04T06:48:11.483Z,90.90
2017-10-04T06:50:40.323Z,90.30
2017-10-04T06:53:08.935Z,86.10
2017-10-04T06:55:37.310Z,85.00
2017-10-04T06:58:05.687Z,83.70
2017-10-04T07:00:34.090Z,82.30
2017-10-04T07:03:02.484Z,82.60
2017-10-04T07:05:31.091Z,80.40
2017-10-04T07:08:00.232Z,69.70
2017-10-04T07:10:28.619Z,69.50
2017-10-04T07:12:57.019Z,64.30
2017-10-04T07:15:25.419Z,61.90
2017-10-04T07:17:54.623Z,56.10
2017-10-04T07:20:23.764Z,55.00
2017-10-04T07:22:52.150Z,54.90
2017-10-04T07:25:20.546Z,55.20
2017-10-04T07:27:48.931Z,56.20
2017-10-04T07:30:17.516Z,57.10
2017-10-04T07:32:46.650Z,59.00
2017-10-04T07:35:15.028Z,59.00
2017-10-04T07:37:43.436Z,59.60
2017-10-04T07:40:11.815Z,59.10
2017-10-04T07:42:40.379Z,58.80
2017-10-04T07:45:08.770Z,58.90
2017-10-04T07:47:37.165Z,59.40
2017-10-04T07:50:05.566Z,60.30
2017-10-04T07:52:33.948Z,63.30
2017-10-04T07:55:02.367Z,63.50
2017-10-04T07:57:30.751Z,64.80
2017-10-04T07:59:59.128Z,67.50
2017-10-04T08:02:27.529Z,68.70
2017-10-04T08:04:55.911Z,68.20
2017-10-04T08:07:24.480Z,70.20
2017-10-04T08:09:52.855Z,69.30
2017-10-04T08:12:21.234Z,69.90
2017-10-04T08:14:49.634Z,70.80
2017-10-04T08:17:18.015Z,71.40
2017-10-04T08:19:46.593Z,73.70
2017-10-04T08:22:14.979Z,74.40
2017-10-04T08:24:43.355Z,73.40
2017-10-04T08:27:11.744Z,76.40
2017-10-04T08:29:40.131Z,78.50
2017-10-04T08:32:08.786Z,78.00
2017-10-04T08:34:37.172Z,80.40
2017-10-04T08:37:05.556Z,80.40
2017-10-04T08:39:34.776Z,79.00
2017-10-04T08:42:03.197Z,79.10
2017-10-04T08:44:31.634Z,80.30
2017-10-04T08:47:17.751Z,80.60
2017-10-04T08:49:47.316Z,76.70
2017-10-04T08:52:15.695Z,76.70
2017-10-04T08:54:44.078Z,75.80
2017-10-04T08:57:12.482Z,72.40
2017-10-04T08:59:41.618Z,69.00
2017-10-04T09:02:10.209Z,69.00
2017-10-04T09:04:56.274Z,68.00
2017-10-04T09:07:24.887Z,67.80
2017-10-04T09:09:54.767Z,66.90
2017-10-04T09:12:23.147Z,63.20
2017-10-04T09:14:51.551Z,59.90
2017-10-04T09:17:19.932Z,55.50
2017-10-04T09:19:48.688Z,52.80
2017-10-04T09:22:17.067Z,54.10
2017-10-04T09:24:46.204Z,49.20
2017-10-04T09:27:14.603Z,49.20
2017-10-04T09:29:42.979Z,50.70
2017-10-04T09:32:11.411Z,50.70
2017-10-04T09:34:39.813Z,48.90
2017-10-04T09:37:08.194Z,47.80
2017-10-04T09:39:36.591Z,47.70
2017-10-04T09:42:04.987Z,45.90
2017-10-04T09:44:33.627Z,46.00
2017-10-04T09:47:02.016Z,46.10
2017-10-04T09:49:30.388Z,46.00
2017-10-04T09:51:58.795Z,49.00
2017-10-04T09:54:27.180Z,51.00
2017-10-04T09:56:56.401Z,50.30
2017-10-04T09:59:25.551Z,53.20
2017-10-04T10:01:53.951Z,53.10
2017-10-04T10:04:22.405Z,53.70
2017-10-04T10:06:50.784Z,54.10
2017-10-04T10:09:19.662Z,53.60
2017-10-04T10:11:48.115Z,53.10
2017-10-04T10:14:16.495Z,52.80
2017-10-04T10:16:44.879Z,52.10
2017-10-04T10:19:13.262Z,50.90
2017-10-04T10:21:41.682Z,49.20
2017-10-04T10:24:10.055Z,47.70
2017-10-04T10:26:38.428Z,46.40
2017-10-04T10:29:06.835Z,47.10
2017-10-04T10:31:35.211Z,45.50
2017-10-04T10:34:03.799Z,46.40
2017-10-04T10:36:32.188Z,46.20
2017-10-04T10:39:01.327Z,44.60
2017-10-04T10:41:29.910Z,44.50
2017-10-04T10:43:58.282Z,43.80
2017-10-04T10:46:27.339Z,43.60
2017-10-04T10:48:56.504Z,44.50
2017-10-04T10:51:24.945Z,44.50
2017-10-04T10:53:53.338Z,44.80
2017-10-04T10:56:21.736Z,43.50
2017-10-04T10:58:50.122Z,42.70
2017-10-04T11:01:18.774Z,43.30
2017-10-04T11:03:47.271Z,41.00
2017-10-04T11:06:16.668Z,42.30
2017-10-04T11:08:45.049Z,43.40
2017-10-04T11:11:13.429Z,44.00
2017-10-04T11:13:41.828Z,42.70
2017-10-04T11:16:10.219Z,42.20
2017-10-04T11:18:39.066Z,42.10
2017-10-04T11:21:07.442Z,42.80
2017-10-04T11:23:35.810Z,44.10
2017-10-04T11:26:04.213Z,42.20
2017-10-04T11:28:32.651Z,43.20
2017-10-04T11:31:02.200Z,43.80
2017-10-04T11:33:30.577Z,43.70
2017-10-04T11:35:58.954Z,43.00
2017-10-04T11:38:27.350Z,44.60
2017-10-04T11:40:55.731Z,47.20
2017-10-04T11:43:24.170Z,49.20
2017-10-04T11:45:52.562Z,50.60
2017-10-04T11:48:20.942Z,52.60
2017-10-04T11:50:49.335Z,53.70
2017-10-04T11:53:17.719Z,54.10
2017-10-04T11:55:46.387Z,53.50
2017-10-04T11:58:14.763Z,52.60
2017-10-04T12:00:43.139Z,52.60
2017-10-04T12:03:11.543Z,51.50
2017-10-04T12:05:39.927Z,51.30
2017-10-04T12:08:08.476Z,50.90
2017-10-04T12:10:36.879Z,50.20
2017-10-04T12:13:05.255Z,51.00
2017-10-04T12:15:33.908Z,52.00
2017-10-04T12:18:02.284Z,51.50
2017-10-04T12:20:30.723Z,51.00
2017-10-04T12:22:59.110Z,51.40
2017-10-04T12:25:28.263Z,53.10
2017-10-04T12:27:56.670Z,53.10
2017-10-04T12:30:25.055Z,54.30
2017-10-04T12:32:54.416Z,56.30
2017-10-04T12:35:22.798Z,55.80
2017-10-04T12:37:51.184Z,56.50
2017-10-04T12:40:19.592Z,56.00
2017-10-04T12:42:48.736Z,57.30
2017-10-04T12:45:17.542Z,57.30
2017-10-04T12:47:46.252Z,57.30
2017-10-04T12:50:14.626Z,57.60
2017-10-04T12:52:43.023Z,59.00
2017-10-04T12:55:12.166Z,57.70
2017-10-04T12:57:40.649Z,58.10
2017-10-04T13:00:09.028Z,58.50
2017-10-04T13:02:37.411Z,58.30
2017-10-04T13:05:05.911Z,59.00
2017-10-04T13:07:34.302Z,59.60
2017-10-04T13:10:04.085Z,58.30
2017-10-04T13:12:32.466Z,58.90
2017-10-04T13:15:00.843Z,58.20
2017-10-04T13:17:29.814Z,57.60
2017-10-04T13:19:58.186Z,58.20
2017-10-04T13:22:26.627Z,57.50
2017-10-04T13:24:55.011Z,57.50
2017-10-04T13:27:24.163Z,57.80
2017-10-04T13:29:52.579Z,57.80
2017-10-04T13:32:20.963Z,58.10
2017-10-04T13:34:50.520Z,59.60
2017-10-04T13:37:18.907Z,59.00
2017-10-04T13:39:47.290Z,59.30
2017-10-04T13:42:15.694Z,60.30
2017-10-04T13:44:44.075Z,59.70
2017-10-04T13:47:12.495Z,58.80
2017-10-04T13:49:40.882Z,58.50
2017-10-04T13:52:09.275Z,59.20
2017-10-04T13:54:37.683Z,59.20
2017-10-04T13:57:06.063Z,59.40
2017-10-04T13:59:34.629Z,59.20
2017-10-04T14:02:03.007Z,60.10
2017-10-04T14:04:31.395Z,60.10
2017-10-04T14:06:59.803Z,60.30
2017-10-04T14:09:28.962Z,61.10
2017-10-04T14:11:57.548Z,61.10
2017-10-04T14:14:25.931Z,60.90
2017-10-04T14:16:55.425Z,61.50
2017-10-04T14:19:24.204Z,62.00
2017-10-04T14:21:52.582Z,61.90
2017-10-04T14:24:21.163Z,62.50
2017-10-04T14:26:49.543Z,61.90
2017-10-04T14:29:17.974Z,62.20
2017-10-04T14:31:47.123Z,63.40
2017-10-04T14:34:15.511Z,63.40
2017-10-04T14:36:44.083Z,63.80
2017-10-04T14:39:12.467Z,64.10
2017-10-04T14:41:40.862Z,63.90
2017-10-04T14:44:09.260Z,63.90
2017-10-04T14:46:37.727Z,64.30
2017-10-04T14:49:07.079Z,64.60
2017-10-04T14:51:35.480Z,65.00
2017-10-04T14:54:03.964Z,64.60
2017-10-04T14:56:32.390Z,63.30
2017-10-04T14:59:01.520Z,63.50
2017-10-04T15:01:30.142Z,64.10
2017-10-04T15:03:58.520Z,63.30
2017-10-04T15:06:26.898Z,64.00
2017-10-04T15:08:55.313Z,64.10
2017-10-04T15:11:24.452Z,65.30
2017-10-04T15:13:53.136Z,65.20
2017-10-04T15:16:21.519Z,64.00
2017-10-04T15:18:49.901Z,65.40
2017-10-04T15:21:18.316Z,65.90
2017-10-04T15:23:47.523Z,66.50
2017-10-04T15:26:17.001Z,66.70
2017-10-04T15:28:45.379Z,66.70
2017-10-04T15:31:13.753Z,67.50
2017-10-04T15:33:42.193Z,68.30
2017-10-04T15:36:10.579Z,68.60
2017-10-04T15:38:39.003Z,69.20
2017-10-04T15:41:07.384Z,70.20
2017-10-04T15:43:35.763Z,70.10
2017-10-04T15:46:04.932Z,70.10
2017-10-04T15:48:33.315Z,70.60
2017-10-04T15:51:01.839Z,71.30
2017-10-04T15:53:30.987Z,72.40
2017-10-04T15:55:59.366Z,72.40
2017-10-04T15:58:27.771Z,72.60
2017-10-04T16:00:56.144Z,73.10
2017-10-04T16:03:24.895Z,73.40
2017-10-04T16:05:53.276Z,73.80
2017-10-04T16:08:21.667Z,74.40
2017-10-04T16:10:50.087Z,74.80
2017-10-04T16:13:19.319Z,75.60
2017-10-04T16:15:47.737Z,75.40
2017-10-04T16:18:16.132Z,75.80
2017-10-04T16:20:44.595Z,75.90
2017-10-04T16:23:13.057Z,75.90
2017-10-04T16:25:41.428Z,76.40
2017-10-04T16:28:10.223Z,76.80
2017-10-04T16:30:38.602Z,77.40
2017-10-04T16:33:07.063Z,77.70
2017-10-04T16:35:35.460Z,77.70
2017-10-04T16:38:03.923Z,78.30
2017-10-04T16:40:32.535Z,79.20
2017-10-04T16:43:00.918Z,79.60
2017-10-04T16:45:29.307Z,80.10
2017-10-04T16:47:57.715Z,81.00
2017-10-04T16:50:26.959Z,81.70
2017-10-04T16:52:55.740Z,81.70
2017-10-04T16:55:24.119Z,81.80
2017-10-04T16:57:52.491Z,82.00
2017-10-04T17:00:20.898Z,82.20
2017-10-04T17:02:49.281Z,82.50
2017-10-04T17:05:18.038Z,82.80
2017-10-04T17:07:46.448Z,82.90
2017-10-04T17:10:15.614Z,83.90
2017-10-04T17:12:44.028Z,83.80
2017-10-04T17:15:12.437Z,84.00
2017-10-04T17:17:41.624Z,84.90
2017-10-04T17:20:10.771Z,85.60
2017-10-04T17:22:39.147Z,85.50
2017-10-04T17:25:07.557Z,86.30
2017-10-04T17:27:35.944Z,86.90
2017-10-04T17:30:04.363Z,87.30
2017-10-04T17:32:32.776Z,87.40
2017-10-04T17:35:01.176Z,87.80
2017-10-04T17:37:29.595Z,88.80
2017-10-04T17:39:57.986Z,88.60
2017-10-04T17:42:26.488Z,88.20
2017-10-04T17:44:54.864Z,88.70
2017-10-04T17:47:23.243Z,89.50
2017-10-04T17:49:51.657Z,89.20
2017-10-04T17:52:20.139Z,89.40
2017-10-04T17:54:49.600Z,90.20
2017-10-04T17:57:18.027Z,90.10
2017-10-04T17:59:47.174Z,90.40
2017-10-04T18:02:15.588Z,90.40
2017-10-04T18:04:43.974Z,90.50
2017-10-04T18:07:12.524Z,90.70
2017-10-04T18:09:40.907Z,90.80
2017-10-04T18:12:09.284Z,91.00
2017-10-04T18:14:37.760Z,91.00
2017-10-04T18:17:06.227Z,91.00
2017-10-04T18:19:34.927Z,91.00
2017-10-04T18:22:03.310Z,91.00
2017-10-04T18:24:31.755Z,91.10
2017-10-04T18:27:00.153Z,90.90
2017-10-04T18:29:28.678Z,90.80
2017-10-04T18:31:57.112Z,90.70
2017-10-04T18:34:25.491Z,90.70
2017-10-04T18:36:53.911Z,90.60
2017-10-04T18:39:22.353Z,90.60
2017-10-04T18:41:50.726Z,90.40
2017-10-04T18:44:19.316Z,90.50
2017-10-04T18:46:47.687Z,90.50
2017-10-04T18:49:16.063Z,90.40
2017-10-04T18:51:44.560Z,90.40
2017-10-04T18:54:12.973Z,90.30
2017-10-04T18:56:41.408Z,90.30
2017-10-04T18:59:09.794Z,90.80
2017-10-04T19:01:38.171Z,90.60
2017-10-04T19:04:06.572Z,90.70
2017-10-04T19:06:34.956Z,90.80
2017-10-04T19:09:03.626Z,90.90
2017-10-04T19:11:32.011Z,91.00
2017-10-04T19:14:00.391Z,91.10
2017-10-04T19:16:28.798Z,91.10
2017-10-04T19:18:57.960Z,91.50
2017-10-04T19:21:26.379Z,91.50
2017-10-04T19:23:55.523Z,91.70
2017-10-04T19:26:23.936Z,91.70
2017-10-04T19:28:53.128Z,91.80
2017-10-04T19:31:22.288Z,92.00
2017-10-04T19:33:50.704Z,92.00
2017-10-04T19:36:19.127Z,92.10
2017-10-04T19:38:47.504Z,92.10
2017-10-04T19:41:15.938Z,92.20
2017-10-04T19:43:44.498Z,92.30
2017-10-04T19:46:12.873Z,92.40
2017-10-04T19:48:41.289Z,92.50
2017-10-04T19:51:09.866Z,92.60
2017-10-04T19:53:38.621Z,92.70
2017-10-04T19:56:07.283Z,92.80
2017-10-04T19:58:35.691Z,92.90
2017-10-04T20:01:04.127Z,93.00
2017-10-04T20:03:33.273Z,93.00
2017-10-04T20:06:01.763Z,93.00
2017-10-04T20:08:30.143Z,93.10
2017-10-04T20:10:58.722Z,93.20
2017-10-04T20:13:27.374Z,93.30
2017-10-04T20:15:55.775Z,93.60
2017-10-04T20:18:24.751Z,93.10
2017-10-04T20:20:53.391Z,93.20
2017-10-04T20:23:22.831Z,93.20
2017-10-04T20:25:51.795Z,93.20
2017-10-04T20:28:21.840Z,93.20
2017-10-04T20:30:50.533Z,93.20
2017-10-04T20:33:19.330Z,93.20
2017-10-04T20:35:48.220Z,93.20
2017-10-04T20:38:17.255Z,93.20
2017-10-04T20:40:45.654Z,93.20
2017-10-04T20:43:14.999Z,93.10
2017-10-04T20:45:43.383Z,93.10
2017-10-04T20:48:11.819Z,93.20
2017-10-04T20:50:41.049Z,93.30
2017-10-04T20:53:09.977Z,93.30
2017-10-04T20:55:38.619Z,93.10
2017-10-04T20:58:07.000Z,93.00
2017-10-04T21:00:35.431Z,93.10
2017-10-04T21:03:05.195Z,93.00
2017-10-04T21:05:33.572Z,93.00
2017-10-04T21:08:02.000Z,93.00
2017-10-04T21:10:31.960Z,93.00
2017-10-04T21:13:00.527Z,92.90
2017-10-04T21:15:28.943Z,93.00
2017-10-04T21:17:57.348Z,93.00
2017-10-04T21:20:26.885Z,93.10
2017-10-04T21:22:55.344Z,93.10
2017-10-04T21:25:24.500Z,93.10
2017-10-04T21:27:53.023Z,93.10
2017-10-04T21:30:21.400Z,93.10
2017-10-04T21:32:50.761Z,92.90
2017-10-04T21:35:19.325Z,92.80
2017-10-04T21:37:47.718Z,92.80
2017-10-04T21:40:16.127Z,92.70
2017-10-04T21:42:44.523Z,92.60
2017-10-04T21:45:13.699Z,92.40
2017-10-04T21:47:42.071Z,92.40
2017-10-04T21:50:10.468Z,92.40
2017-10-04T21:52:38.871Z,92.30
2017-10-04T21:55:08.215Z,92.30
2017-10-04T21:57:36.847Z,92.30
2017-10-04T22:00:06.023Z,92.30
2017-10-04T22:02:34.409Z,92.30
2017-10-04T22:05:03.590Z,92.30
2017-10-04T22:07:32.054Z,92.20
2017-10-04T22:10:00.747Z,92.20
2017-10-04T22:12:29.623Z,92.10
2017-10-04T22:14:58.014Z,92.10
2017-10-04T22:17:26.412Z,92.20
2017-10-04T22:19:54.791Z,92.10
2017-10-04T22:22:23.344Z,92.20
2017-10-04T22:24:51.729Z,92.30
2017-10-04T22:27:20.103Z,92.20
2017-10-04T22:29:48.507Z,92.30
2017-10-04T22:32:16.885Z,92.10
2017-10-04T22:34:45.329Z,91.80
2017-10-04T22:37:13.699Z,91.80
2017-10-04T22:39:42.080Z,91.90
2017-10-04T22:42:10.526Z,91.90
2017-10-04T22:44:39.690Z,91.80
2017-10-04T22:47:08.107Z,91.80
2017-10-04T22:49:37.251Z,91.40
2017-10-04T22:52:05.625Z,91.40
2017-10-04T22:54:34.022Z,91.50
2017-10-04T22:57:02.431Z,91.20
2017-10-04T22:59:31.766Z,90.80
2017-10-04T23:02:00.143Z,90.80
2017-10-04T23:04:28.536Z,91.00
2017-10-04T23:06:56.940Z,90.90
2017-10-04T23:09:25.315Z,91.00
2017-10-04T23:11:53.746Z,91.00
2017-10-04T23:14:22.127Z,91.00
2017-10-04T23:16:50.511Z,91.00
2017-10-04T23:19:18.924Z,91.10
2017-10-04T23:21:47.294Z,91.00
2017-10-04T23:24:15.972Z,91.00
2017-10-04T23:26:44.351Z,91.20
2017-10-04T23:29:12.727Z,91.20
2017-10-04T23:31:41.129Z,91.50
2017-10-04T23:34:09.516Z,91.20
2017-10-04T23:36:38.070Z,91.30
2017-10-04T23:39:06.446Z,91.20
2017-10-04T23:41:34.952Z,91.30
2017-10-04T23:44:03.372Z,91.40
2017-10-04T23:46:31.754Z,91.40
2017-10-04T23:49:00.188Z,91.50
2017-10-04T23:51:28.565Z,91.60
2017-10-04T23:53:56.964Z,91.60
2017-10-04T23:56:26.127Z,91.60
2017-10-04T23:58:54.500Z,91.60
